Miami, New Mexico
Current Conditions -  °F | °C
As of 8:15 AM on Wednesday 26 Nov 2014 (Local Time) from KAXX Reporting Station
Clear Clear  
Wind Chill: 30°   Ceiling: Unl
Heat Index: 30°   Visibility: 10mi
Dew Point: 18°   Wind: 0mph
Humidity: 60%   Direction: NA
Pressure: 30.32"   Gusts: NA
Location:  36.35°N, 104.8°W
Report Text: KAXX 261515Z AUTO 00000KT 10SM CLR M01/M08 A3032 RMK AO2 T10111080
Loading
Personal Weather Stations






























Interactive Weather Map New forecast layout! Learn more

10-Day Weather Forecast

Advertisements
Track Severe Weather on mobile